Time;durP1;ratioP1;P1;durP2;ratioP2;P2;SDS_P1;SDS_P2;PMS_P1;PMS_P2;Temp;Humidity;BMP_temperature;BMP_pressure;BME280_temperature;BME280_humidity;BME280_pressure;Samples;Min_cycle;Max_cycle;Signal;HPM_P1;HPM_P2
2022/12/02 00:01:00;;;;;;;24.08;16.52;;;6.40;99.90;;;;;;5030761;28;20682;-66
2022/12/02 00:03:26;;;;;;;22.17;14.70;;;6.00;99.90;;;;;;5031177;28;20279;-66
2022/12/02 00:05:56;;;;;;;24.20;16.83;;;6.40;99.90;;;;;;5031490;28;20206;-66
2022/12/02 00:08:27;;;;;;;23.85;14.88;;;6.20;99.90;;;;;;5031788;28;20251;-66
2022/12/02 00:10:55;;;;;;;23.73;16.20;;;6.30;99.90;;;;;;5032911;28;20183;-68
2022/12/02 00:13:32;;;;;;;25.08;16.92;;;6.20;99.90;;;;;;5032547;28;20951;-66
2022/12/02 00:16:01;;;;;;;23.05;15.32;;;6.00;99.90;;;;;;5030920;28;20260;-66
2022/12/02 00:18:27;;;;;;;22.95;15.30;;;6.30;99.90;;;;;;5034184;28;20190;-66
2022/12/02 00:20:53;;;;;;;21.77;15.18;;;5.60;99.90;;;;;;5032081;28;20232;-66
2022/12/02 00:23:19;;;;;;;22.20;16.15;;;6.10;99.90;;;;;;5032205;28;20193;-66
2022/12/02 00:25:47;;;;;;;22.70;15.70;;;6.20;99.90;;;;;;5047805;28;20216;-66
2022/12/02 00:28:14;;;;;;;22.38;16.85;;;6.20;99.90;;;;;;5032743;28;20802;-68
2022/12/02 00:30:39;;;;;;;29.83;17.60;;;5.90;99.90;;;;;;5031517;28;20546;-66
2022/12/02 00:33:09;;;;;;;22.80;15.23;;;5.80;99.90;;;;;;5030655;28;20198;-68
2022/12/02 00:35:35;;;;;;;22.02;17.00;;;5.90;99.90;;;;;;5030671;28;20439;-68
2022/12/02 00:38:01;;;;;;;23.60;15.95;;;5.90;99.90;;;;;;5030806;28;20215;-68
2022/12/02 00:40:27;;;;;;;24.43;15.13;;;6.20;99.90;;;;;;5031201;28;20182;-68
2022/12/02 00:42:53;;;;;;;21.13;15.43;;;5.90;99.90;;;;;;5031997;28;20455;-68
2022/12/02 00:48:03;;;;;;;22.17;15.55;;;5.90;99.90;;;;;;5032440;28;21343;-68
2022/12/02 00:50:29;;;;;;;26.00;17.30;;;6.20;99.90;;;;;;5037756;28;20193;-68
2022/12/02 00:52:55;;;;;;;24.03;15.50;;;5.90;99.90;;;;;;5030769;28;20676;-68
2022/12/02 00:55:20;;;;;;;24.03;15.90;;;6.20;99.90;;;;;;5042604;28;20255;-68
2022/12/02 00:57:46;;;;;;;22.77;15.60;;;6.00;99.90;;;;;;5030715;28;20657;-65
2022/12/02 01:00:12;;;;;;;20.53;14.80;;;6.10;99.90;;;;;;5037211;28;20232;-66
2022/12/02 01:02:38;;;;;;;22.85;16.63;;;6.00;99.90;;;;;;5032856;28;20190;-66
2022/12/02 01:05:04;;;;;;;23.53;16.30;;;6.00;99.90;;;;;;5039925;28;20213;-65
2022/12/02 01:07:30;;;;;;;24.85;16.05;;;6.20;99.90;;;;;;5029853;28;20264;-65
2022/12/02 01:09:56;;;;;;;22.35;15.55;;;5.80;99.90;;;;;;5034013;28;20200;-66
2022/12/02 01:12:22;;;;;;;24.77;15.30;;;6.20;99.90;;;;;;5037104;28;20186;-67
2022/12/02 01:14:48;;;;;;;26.97;17.40;;;6.10;99.90;;;;;;5031723;28;20212;-65
2022/12/02 01:17:13;;;;;;;24.97;16.00;;;6.10;99.90;;;;;;5028453;28;20178;-66
2022/12/02 01:19:39;;;;;;;25.20;16.90;;;5.80;99.90;;;;;;5030839;28;20498;-66
2022/12/02 01:22:05;;;;;;;26.47;17.70;;;5.50;99.90;;;;;;5031401;28;20185;-65
2022/12/02 01:24:30;;;;;;;25.33;16.83;;;5.80;99.90;;;;;;5030470;28;20549;-66
2022/12/02 01:26:56;;;;;;;23.37;16.30;;;5.70;99.90;;;;;;5031009;28;20463;-66
2022/12/02 01:29:22;;;;;;;21.27;16.40;;;6.00;99.90;;;;;;5030034;28;20261;-67
2022/12/02 01:31:47;;;;;;;24.97;15.80;;;5.70;99.90;;;;;;5032061;28;20594;-67
2022/12/02 01:34:13;;;;;;;26.13;16.73;;;6.20;99.90;;;;;;5020806;28;20470;-68
2022/12/02 01:36:39;;;;;;;25.70;16.57;;;5.90;99.90;;;;;;5029618;28;20188;-65
2022/12/02 01:39:04;;;;;;;27.17;17.73;;;5.70;99.90;;;;;;5031012;28;20188;-66
2022/12/02 01:41:30;;;;;;;23.70;16.97;;;6.10;99.90;;;;;;5030352;28;20275;-68
2022/12/02 01:43:56;;;;;;;24.67;16.90;;;6.00;99.90;;;;;;5029378;28;20210;-68
2022/12/02 01:46:21;;;;;;;24.53;17.40;;;5.90;99.90;;;;;;5027650;28;20572;-68
2022/12/02 01:48:48;;;;;;;24.10;16.37;;;6.10;99.90;;;;;;5030966;28;20186;-68
2022/12/02 01:51:14;;;;;;;24.85;16.80;;;6.00;99.90;;;;;;5026780;28;20262;-67
2022/12/02 01:53:40;;;;;;;22.98;15.52;;;6.10;99.90;;;;;;5036686;28;20209;-67
2022/12/02 01:56:09;;;;;;;21.92;16.02;;;6.00;99.90;;;;;;5033378;28;20183;-68
2022/12/02 01:58:35;;;;;;;24.70;15.80;;;6.30;99.90;;;;;;5034330;28;20177;-68
2022/12/02 02:01:01;;;;;;;22.48;16.05;;;6.10;99.90;;;;;;5027704;28;20190;-66
2022/12/02 02:03:27;;;;;;;23.27;16.63;;;6.20;99.90;;;;;;5034739;28;20629;-66
2022/12/02 02:05:54;;;;;;;21.20;15.80;;;6.00;99.90;;;;;;5029868;28;20214;-66
2022/12/02 02:08:20;;;;;;;23.70;16.90;;;6.20;99.90;;;;;;5038745;28;20184;-66
2022/12/02 02:10:46;;;;;;;22.55;15.65;;;6.10;99.90;;;;;;5034148;28;20182;-65
2022/12/02 02:13:14;;;;;;;25.38;17.98;;;6.20;99.90;;;;;;5037407;28;20186;-69
2022/12/02 02:15:42;;;;;;;23.05;15.75;;;6.60;99.90;;;;;;5029296;28;20273;-66
2022/12/02 02:18:08;;;;;;;22.90;17.38;;;6.10;99.90;;;;;;5030640;28;20277;-67
2022/12/02 02:20:39;;;;;;;22.00;15.50;;;6.30;99.90;;;;;;5029058;28;20182;-66
2022/12/02 02:23:04;;;;;;;23.67;15.60;;;6.20;99.90;;;;;;5028546;28;20191;-66
2022/12/02 02:25:43;;;;;;;21.40;16.00;;;6.20;99.90;;;;;;5045207;28;20213;-66
2022/12/02 02:28:09;;;;;;;22.98;15.35;;;6.50;99.90;;;;;;5029652;28;20268;-67
2022/12/02 02:30:36;;;;;;;24.80;17.20;;;6.30;99.90;;;;;;5035127;28;20264;-67
2022/12/02 02:33:04;;;;;;;22.67;15.48;;;6.10;99.90;;;;;;5021305;28;20570;-67
2022/12/02 02:35:32;;;;;;;26.20;16.80;;;6.20;99.90;;;;;;5030305;28;20205;-67
2022/12/02 02:37:58;;;;;;;22.75;16.27;;;6.10;99.90;;;;;;5029773;28;20185;-64
2022/12/02 02:40:25;;;;;;;28.03;18.00;;;6.10;99.90;;;;;;5030140;28;20638;-65
2022/12/02 02:42:54;;;;;;;23.33;16.50;;;6.10;99.90;;;;;;5030544;28;20457;-66
2022/12/02 02:45:23;;;;;;;22.67;16.58;;;6.10;99.90;;;;;;5044849;28;20221;-67
2022/12/02 02:47:49;;;;;;;26.30;18.23;;;6.30;99.90;;;;;;5030445;28;20182;-66
2022/12/02 02:50:15;;;;;;;24.52;15.93;;;6.30;99.90;;;;;;5030359;28;20204;-66
2022/12/02 02:52:41;;;;;;;26.65;18.65;;;6.40;99.90;;;;;;5029547;28;20220;-66
2022/12/02 02:55:09;;;;;;;24.00;16.57;;;6.00;99.90;;;;;;5029926;28;20671;-66
2022/12/02 02:57:36;;;;;;;26.05;15.80;;;6.10;99.90;;;;;;5030004;28;20193;-65
2022/12/02 03:00:03;;;;;;;21.35;16.25;;;6.10;99.90;;;;;;5033823;28;20195;-66
2022/12/02 03:02:29;;;;;;;21.95;16.08;;;5.70;99.90;;;;;;5033185;28;20189;-65
2022/12/02 03:04:55;;;;;;;25.45;17.63;;;6.30;99.90;;;;;;5034252;28;20228;-66
2022/12/02 03:07:21;;;;;;;24.07;16.43;;;6.10;99.90;;;;;;5033166;28;20926;-66
2022/12/02 03:09:47;;;;;;;23.23;15.68;;;6.10;99.90;;;;;;5033942;28;20178;-65
2022/12/02 03:12:13;;;;;;;22.70;16.50;;;6.20;99.90;;;;;;5049426;28;20544;-66
2022/12/02 03:14:39;;;;;;;26.25;16.15;;;6.20;99.90;;;;;;5033531;28;20669;-66
2022/12/02 03:17:05;;;;;;;22.70;15.87;;;6.10;99.90;;;;;;5030075;28;20286;-66
2022/12/02 03:19:33;;;;;;;24.60;17.02;;;6.10;99.90;;;;;;5034590;28;20244;-66
2022/12/02 03:22:00;;;;;;;22.80;16.13;;;6.00;99.90;;;;;;5033734;28;20185;-65
2022/12/02 03:24:26;;;;;;;25.35;16.67;;;6.10;99.90;;;;;;5033453;28;20286;-64
2022/12/02 03:26:52;;;;;;;26.13;15.95;;;5.90;99.90;;;;;;5032948;28;20189;-64
2022/12/02 03:29:19;;;;;;;23.65;16.83;;;5.90;99.90;;;;;;5033210;28;20182;-66
2022/12/02 03:31:45;;;;;;;22.25;14.75;;;5.90;99.90;;;;;;5031576;28;20239;-65
2022/12/02 03:34:11;;;;;;;25.88;17.27;;;5.90;99.90;;;;;;5026627;28;20210;-65
2022/12/02 03:36:37;;;;;;;20.98;16.15;;;6.90;99.90;;;;;;5032354;28;20178;-67
2022/12/02 03:39:03;;;;;;;25.93;17.00;;;6.10;99.90;;;;;;5036437;28;20194;-66
2022/12/02 03:41:29;;;;;;;23.05;15.43;;;6.20;99.90;;;;;;5036531;28;20451;-65
2022/12/02 03:43:57;;;;;;;21.90;15.53;;;6.20;99.90;;;;;;5031254;28;20205;-69
2022/12/02 03:46:23;;;;;;;20.77;14.73;;;6.10;99.90;;;;;;5030372;28;20693;-67
2022/12/02 03:48:49;;;;;;;24.20;16.52;;;5.90;99.90;;;;;;5033093;28;20336;-68
2022/12/02 03:51:16;;;;;;;22.92;16.65;;;6.10;99.90;;;;;;5032619;28;20197;-67
2022/12/02 03:53:43;;;;;;;25.88;16.38;;;6.10;99.90;;;;;;5028058;28;20222;-67
2022/12/02 03:56:09;;;;;;;21.33;15.18;;;6.00;99.90;;;;;;5033168;28;20186;-67
2022/12/02 03:58:38;;;;;;;25.50;17.13;;;6.60;99.90;;;;;;5032600;28;20182;-67
2022/12/02 04:01:05;;;;;;;23.45;16.67;;;6.10;99.90;;;;;;5026227;28;20667;-66
2022/12/02 04:03:31;;;;;;;26.23;16.77;;;6.20;99.90;;;;;;5034102;28;20782;-66
2022/12/02 04:05:56;;;;;;;22.48;15.07;;;6.00;99.90;;;;;;5034726;28;20275;-66
2022/12/02 04:08:22;;;;;;;27.70;18.00;;;6.10;99.90;;;;;;5033542;28;20617;-67
2022/12/02 04:10:48;;;;;;;25.77;16.90;;;6.10;99.90;;;;;;5034434;28;20190;-69
2022/12/02 04:13:14;;;;;;;23.80;17.97;;;5.90;99.90;;;;;;5047199;28;20428;-67
2022/12/02 04:15:39;;;;;;;23.50;16.30;;;6.10;99.90;;;;;;5029331;28;20273;-64
2022/12/02 04:18:05;;;;;;;24.17;17.43;;;5.80;99.90;;;;;;5033320;28;20220;-66
2022/12/02 04:20:31;;;;;;;23.03;16.27;;;6.00;99.90;;;;;;5032796;28;20186;-66
2022/12/02 04:22:56;;;;;;;23.73;16.63;;;6.00;99.90;;;;;;5029859;28;20630;-66
2022/12/02 04:25:22;;;;;;;27.83;17.93;;;6.10;99.90;;;;;;5032072;28;20296;-66
2022/12/02 04:27:47;;;;;;;25.90;17.60;;;6.00;99.90;;;;;;5031456;28;20680;-68
2022/12/02 04:30:13;;;;;;;24.17;17.30;;;6.10;99.90;;;;;;5032836;28;20174;-65
2022/12/02 04:32:39;;;;;;;23.63;17.30;;;6.00;99.90;;;;;;5030512;28;20262;-66
2022/12/02 04:35:05;;;;;;;26.10;17.80;;;6.00;99.90;;;;;;5028236;28;20232;-66
2022/12/02 04:37:30;;;;;;;29.80;17.17;;;6.00;99.90;;;;;;5030798;28;20194;-66
2022/12/02 04:39:56;;;;;;;25.00;16.17;;;5.90;99.90;;;;;;5028041;28;20442;-67
2022/12/02 04:42:21;;;;;;;23.53;16.43;;;6.20;99.90;;;;;;5046235;28;20643;-65
2022/12/02 04:44:47;;;;;;;26.00;16.33;;;6.10;99.90;;;;;;5037029;28;20217;-66
2022/12/02 04:47:13;;;;;;;24.00;16.30;;;6.00;99.90;;;;;;5034889;28;20182;-65
2022/12/02 04:49:38;;;;;;;25.70;15.97;;;5.90;99.90;;;;;;5030006;28;20647;-67
2022/12/02 04:52:05;;;;;;;29.03;17.03;;;5.70;99.90;;;;;;5025239;28;20621;-66
2022/12/02 04:54:31;;;;;;;24.33;17.33;;;6.00;99.90;;;;;;5030965;28;20224;-67
2022/12/02 04:56:56;;;;;;;27.37;17.73;;;5.90;99.90;;;;;;5029113;28;20186;-68
2022/12/02 04:59:22;;;;;;;24.13;16.60;;;5.70;99.90;;;;;;5028493;28;20233;-65
2022/12/02 05:01:47;;;;;;;23.30;16.77;;;5.90;99.90;;;;;;5046821;28;20182;-65
2022/12/02 05:04:13;;;;;;;24.33;17.60;;;6.00;99.90;;;;;;5031995;28;20225;-65
2022/12/02 05:06:39;;;;;;;23.33;16.20;;;6.20;99.90;;;;;;5026864;28;20209;-66
2022/12/02 05:09:04;;;;;;;26.53;17.20;;;6.10;99.90;;;;;;5031127;28;20213;-66
2022/12/02 05:11:30;;;;;;;23.83;16.90;;;6.00;99.90;;;;;;5032749;28;20693;-66
2022/12/02 05:13:55;;;;;;;26.73;18.93;;;6.30;99.90;;;;;;5027697;28;20213;-66
2022/12/02 05:16:21;;;;;;;23.37;17.10;;;6.10;99.90;;;;;;5026747;28;20213;-66
2022/12/02 05:18:47;;;;;;;25.50;17.00;;;6.30;99.90;;;;;;5028641;28;20223;-65
2022/12/02 05:21:12;;;;;;;23.97;16.93;;;6.40;99.90;;;;;;5028550;28;20190;-68
2022/12/02 05:23:38;;;;;;;25.30;16.30;;;6.20;99.90;;;;;;5028095;28;20312;-66
2022/12/02 05:26:04;;;;;;;26.77;16.90;;;6.40;99.90;;;;;;5030704;28;20303;-66
2022/12/02 05:28:29;;;;;;;24.70;17.73;;;6.10;99.90;;;;;;5031331;28;20186;-66
2022/12/02 05:30:55;;;;;;;23.87;17.27;;;5.80;99.90;;;;;;5028094;28;20181;-66
2022/12/02 05:33:20;;;;;;;27.30;18.10;;;6.00;99.90;;;;;;5029712;28;20189;-65
2022/12/02 05:35:46;;;;;;;24.07;16.73;;;6.00;99.90;;;;;;5028633;28;20723;-65
2022/12/02 05:38:12;;;;;;;23.77;16.83;;;6.20;99.90;;;;;;5029094;28;20239;-64
2022/12/02 05:40:37;;;;;;;29.30;19.17;;;6.20;99.90;;;;;;5029735;28;20201;-64
2022/12/02 05:43:18;;;;;;;31.23;18.97;;;6.40;99.90;;;;;;5030442;28;20229;-64
2022/12/02 05:45:44;;;;;;;30.05;19.95;;;6.10;99.90;;;;;;5027107;28;20577;-64
2022/12/02 05:48:15;;;;;;;25.35;17.48;;;6.20;99.90;;;;;;5029208;28;20204;-65
2022/12/02 05:50:42;;;;;;;25.77;18.35;;;6.10;99.90;;;;;;5029234;28;20177;-63
2022/12/02 05:53:25;;;;;;;27.63;18.48;;;6.10;99.90;;;;;;5028506;28;20186;-62
2022/12/02 05:55:52;;;;;;;25.55;17.42;;;6.20;99.90;;;;;;5024682;28;20213;-64
2022/12/02 05:58:18;;;;;;;26.27;16.58;;;6.00;99.90;;;;;;5028437;28;20209;-63
2022/12/02 06:00:44;;;;;;;27.10;17.27;;;5.90;99.90;;;;;;5028429;28;20225;-64
2022/12/02 06:03:19;;;;;;;26.40;17.98;;;5.80;99.90;;;;;;5029700;28;20193;-64
2022/12/02 06:05:46;;;;;;;25.75;17.52;;;5.90;99.90;;;;;;5026612;28;20203;-62
2022/12/02 06:08:20;;;;;;;33.03;19.85;;;6.30;99.90;;;;;;5024015;28;20285;-64
2022/12/02 06:10:49;;;;;;;29.10;18.08;;;5.90;99.90;;;;;;5028762;28;20230;-64
2022/12/02 06:13:30;;;;;;;28.42;16.98;;;5.70;99.90;;;;;;5034687;28;20189;-64
2022/12/02 06:15:58;;;;;;;26.33;16.90;;;6.10;99.90;;;;;;5027741;28;20312;-64
2022/12/02 06:18:31;;;;;;;29.85;17.63;;;5.90;99.90;;;;;;5028557;28;20697;-66
2022/12/02 06:20:59;;;;;;;25.77;18.20;;;5.80;99.90;;;;;;5028681;28;20284;-64
2022/12/02 06:23:28;;;;;;;26.20;16.35;;;5.90;99.90;;;;;;5028575;28;20186;-66
2022/12/02 06:25:55;;;;;;;26.40;15.18;;;6.00;99.90;;;;;;5027953;28;20217;-67
2022/12/02 06:28:23;;;;;;;27.98;17.20;;;5.80;99.90;;;;;;5026249;28;20189;-65
2022/12/02 06:30:50;;;;;;;48.72;25.38;;;5.90;99.90;;;;;;5027159;28;20183;-65
2022/12/02 06:33:27;;;;;;;24.13;15.80;;;6.10;99.90;;;;;;5027734;28;20186;-66
2022/12/02 06:35:54;;;;;;;27.52;17.13;;;6.00;99.90;;;;;;5029895;28;20285;-66
2022/12/02 06:38:48;;;;;;;22.90;16.50;;;5.80;99.90;;;;;;5026065;28;20193;-65
2022/12/02 06:41:35;;;;;;;24.80;16.38;;;6.00;99.90;;;;;;5028692;28;20205;-65
2022/12/02 06:46:53;;;;;;;24.38;15.88;;;6.10;99.90;;;;;;5023097;28;20614;-63
2022/12/02 06:49:24;;;;;;;28.47;15.47;;;6.00;99.90;;;;;;5024605;28;20278;-60
2022/12/02 06:51:59;;;;;;;24.98;15.82;;;6.20;99.90;;;;;;5028310;28;20193;-64
2022/12/02 06:54:31;;;;;;;24.02;14.90;;;6.20;99.90;;;;;;5026296;28;20209;-66
2022/12/02 06:56:59;;;;;;;21.70;15.05;;;6.80;99.90;;;;;;5026633;28;20190;-66
2022/12/02 06:59:27;;;;;;;23.20;14.45;;;6.90;99.90;;;;;;5022054;28;20191;-67
2022/12/02 07:02:01;;;;;;;22.77;15.63;;;6.80;99.90;;;;;;5029194;28;20185;-67
2022/12/02 07:04:29;;;;;;;19.55;14.27;;;6.80;99.90;;;;;;5032513;28;20271;-68
2022/12/02 07:07:00;;;;;;;25.25;15.85;;;6.90;99.90;;;;;;5028530;28;20262;-70
2022/12/02 07:09:38;;;;;;;22.60;14.13;;;7.00;99.90;;;;;;5035443;28;20192;-64
2022/12/02 07:12:29;;;;;;;27.60;16.52;;;6.40;99.90;;;;;;5036607;28;20287;-66
2022/12/02 07:14:56;;;;;;;31.33;16.05;;;6.20;99.90;;;;;;5021202;28;20210;-66
2022/12/02 07:17:29;;;;;;;21.98;15.60;;;6.10;99.90;;;;;;5039855;28;20182;-64
2022/12/02 07:20:10;;;;;;;23.88;15.55;;;6.10;99.90;;;;;;5023358;28;20794;-63
2022/12/02 07:22:46;;;;;;;22.55;15.90;;;6.00;99.90;;;;;;5028608;28;20182;-67
2022/12/02 07:25:15;;;;;;;29.08;16.55;;;6.10;99.90;;;;;;5023704;28;20217;-70
2022/12/02 07:27:44;;;;;;;21.95;15.45;;;6.30;99.90;;;;;;5027932;28;20544;-71
2022/12/02 07:30:39;;;;;;;25.05;16.33;;;6.30;99.90;;;;;;5023511;28;20192;-72
2022/12/02 07:33:05;;;;;;;24.13;16.60;;;6.30;99.90;;;;;;5020575;28;20201;-70
2022/12/02 07:35:31;;;;;;;29.43;16.63;;;5.90;99.90;;;;;;5028482;28;20621;-70
2022/12/02 07:37:57;;;;;;;26.45;18.05;;;6.20;99.90;;;;;;5026694;28;20444;-72
2022/12/02 07:40:23;;;;;;;30.20;18.93;;;5.90;99.90;;;;;;5024781;28;20182;-69
2022/12/02 07:42:49;;;;;;;26.08;17.75;;;6.20;99.90;;;;;;5028459;28;20205;-70
2022/12/02 07:45:18;;;;;;;31.60;18.17;;;5.90;99.90;;;;;;5028754;28;20214;-67
2022/12/02 07:47:44;;;;;;;29.05;19.15;;;6.10;99.90;;;;;;5031859;28;20882;-69
2022/12/02 07:50:12;;;;;;;25.75;17.80;;;6.00;99.90;;;;;;5032166;28;20182;-67
2022/12/02 07:52:37;;;;;;;24.80;16.52;;;6.30;99.90;;;;;;5029363;28;20208;-67
2022/12/02 07:55:04;;;;;;;28.03;19.13;;;6.40;99.90;;;;;;5031852;28;20304;-68
2022/12/02 07:57:29;;;;;;;30.48;19.45;;;6.40;99.90;;;;;;5029764;28;20186;-67
2022/12/02 07:59:55;;;;;;;26.93;16.10;;;6.30;99.90;;;;;;5032156;28;20190;-68
2022/12/02 08:02:21;;;;;;;37.57;23.20;;;6.20;99.90;;;;;;5030856;28;20589;-68
2022/12/02 08:04:47;;;;;;;28.10;18.90;;;6.20;99.90;;;;;;5031556;28;20229;-67
2022/12/02 08:07:12;;;;;;;31.50;17.90;;;6.30;99.90;;;;;;5027068;28;20495;-67
2022/12/02 08:09:38;;;;;;;32.37;19.83;;;6.30;99.90;;;;;;5030898;28;20462;-67
2022/12/02 08:12:04;;;;;;;31.33;18.63;;;6.20;99.90;;;;;;5031088;28;20213;-68
2022/12/02 08:14:30;;;;;;;31.90;20.63;;;6.10;99.90;;;;;;5030855;28;20616;-67
2022/12/02 08:16:56;;;;;;;35.53;20.97;;;6.20;99.90;;;;;;5030863;28;20186;-67
2022/12/02 08:19:22;;;;;;;31.70;18.90;;;6.10;99.90;;;;;;5030358;28;20604;-67
2022/12/02 08:21:48;;;;;;;33.92;20.92;;;6.00;99.90;;;;;;5030576;28;20186;-67
2022/12/02 08:24:13;;;;;;;34.20;20.07;;;6.80;99.90;;;;;;5031231;28;20281;-66
2022/12/02 08:26:42;;;;;;;32.13;19.83;;;6.10;99.90;;;;;;5030028;28;20453;-66
2022/12/02 08:29:08;;;;;;;30.90;18.75;;;6.10;99.90;;;;;;5034925;28;20201;-68
2022/12/02 08:31:33;;;;;;;35.33;20.07;;;5.90;99.90;;;;;;5026889;28;20191;-67
2022/12/02 08:33:59;;;;;;;31.43;19.13;;;6.10;99.90;;;;;;5026747;28;20490;-68
2022/12/02 08:36:24;;;;;;;30.00;19.77;;;6.10;99.90;;;;;;5030433;28;20269;-71
2022/12/02 08:38:50;;;;;;;29.00;18.50;;;6.30;99.90;;;;;;5031426;28;20212;-70
2022/12/02 08:41:16;;;;;;;28.47;17.20;;;6.50;99.90;;;;;;5030468;28;20198;-70
2022/12/02 08:43:42;;;;;;;31.73;19.17;;;6.30;99.90;;;;;;5029575;28;20216;-69
2022/12/02 08:46:08;;;;;;;29.47;18.00;;;6.00;99.90;;;;;;5028937;28;20210;-67
2022/12/02 08:48:34;;;;;;;29.60;16.52;;;6.20;99.90;;;;;;5033298;28;20448;-68
2022/12/02 08:51:00;;;;;;;26.63;16.53;;;6.00;99.90;;;;;;5024301;28;20222;-65
2022/12/02 08:53:26;;;;;;;28.70;18.15;;;6.30;99.90;;;;;;5033658;28;20178;-65
2022/12/02 08:55:52;;;;;;;26.00;16.50;;;6.20;99.90;;;;;;5047687;28;20179;-64
2022/12/02 08:58:18;;;;;;;29.93;16.87;;;6.00;99.90;;;;;;5031574;28;20194;-64
2022/12/02 09:00:43;;;;;;;27.27;16.63;;;6.00;99.90;;;;;;5030981;28;20186;-66
2022/12/02 09:03:10;;;;;;;27.10;16.00;;;6.20;99.90;;;;;;5028689;28;20235;-66
2022/12/02 09:05:37;;;;;;;23.77;16.08;;;6.00;99.90;;;;;;5034112;28;20214;-65
2022/12/02 09:08:04;;;;;;;27.20;17.08;;;5.60;99.90;;;;;;5028609;28;20186;-65
2022/12/02 09:10:30;;;;;;;25.50;16.15;;;6.20;99.90;;;;;;5035296;28;20585;-67
2022/12/02 09:12:56;;;;;;;24.40;15.50;;;6.30;99.90;;;;;;5028077;28;20249;-64
2022/12/02 09:15:22;;;;;;;24.30;16.27;;;6.20;99.90;;;;;;5026353;28;20626;-65
2022/12/02 09:17:48;;;;;;;22.35;16.13;;;6.30;99.90;;;;;;5027846;28;20464;-65
2022/12/02 09:20:16;;;;;;;20.45;14.50;;;6.10;99.90;;;;;;5021080;28;20651;-64
2022/12/02 09:22:45;;;;;;;22.67;13.70;;;5.90;99.90;;;;;;5028189;28;20655;-65
2022/12/02 09:25:11;;;;;;;22.55;14.20;;;6.10;99.90;;;;;;5024208;28;20240;-64
2022/12/02 09:27:37;;;;;;;25.20;14.45;;;5.30;99.90;;;;;;5029558;28;20178;-63
2022/12/02 09:30:04;;;;;;;22.55;13.77;;;5.90;99.90;;;;;;5029605;28;20205;-64
2022/12/02 09:32:30;;;;;;;25.98;15.48;;;5.70;99.90;;;;;;5026780;28;20284;-63
2022/12/02 09:34:55;;;;;;;21.90;12.83;;;6.10;99.90;;;;;;5026669;28;20359;-66
2022/12/02 09:37:21;;;;;;;23.00;14.40;;;5.90;99.90;;;;;;5024474;28;20221;-65
2022/12/02 09:39:47;;;;;;;20.50;13.30;;;6.00;99.90;;;;;;5028395;28;20186;-65
2022/12/02 09:42:14;;;;;;;26.77;15.20;;;6.00;99.90;;;;;;5027509;28;21095;-66
2022/12/02 09:44:42;;;;;;;21.83;13.80;;;6.30;99.90;;;;;;5025507;28;20480;-66
2022/12/02 09:47:08;;;;;;;22.23;13.52;;;6.00;99.90;;;;;;5025536;28;20478;-66
2022/12/02 09:49:34;;;;;;;19.30;12.43;;;6.10;99.90;;;;;;5027424;28;20566;-64
2022/12/02 09:52:03;;;;;;;22.80;13.15;;;6.20;99.90;;;;;;5029017;28;20689;-64
2022/12/02 09:54:29;;;;;;;19.27;12.75;;;5.90;99.90;;;;;;5026691;28;20217;-64
2022/12/02 09:56:55;;;;;;;19.50;12.33;;;6.10;99.90;;;;;;5026457;28;20186;-64
2022/12/02 09:59:21;;;;;;;19.57;12.37;;;6.00;99.90;;;;;;5022558;28;21313;-63
2022/12/02 10:01:48;;;;;;;19.52;11.73;;;6.00;99.90;;;;;;5019214;28;20981;-68
2022/12/02 10:04:19;;;;;;;17.83;12.00;;;6.30;99.90;;;;;;5027842;28;20206;-65
2022/12/02 10:06:46;;;;;;;16.10;11.13;;;6.20;99.90;;;;;;5040428;28;20193;-68
2022/12/02 10:09:19;;;;;;;19.25;11.75;;;6.20;99.90;;;;;;5044408;28;20186;-68
2022/12/02 10:11:45;;;;;;;12.68;10.48;;;6.00;99.90;;;;;;5026192;28;20244;-69
2022/12/02 10:14:13;;;;;;;13.93;9.37;;;6.10;99.90;;;;;;5025501;28;20206;-67
2022/12/02 10:16:39;;;;;;;13.27;9.20;;;6.00;99.90;;;;;;5026713;28;20505;-68
2022/12/02 10:19:06;;;;;;;13.13;10.05;;;6.30;99.90;;;;;;5027759;28;20194;-67
2022/12/02 10:21:32;;;;;;;13.68;9.52;;;6.20;99.90;;;;;;5025649;28;20193;-67
2022/12/02 10:23:59;;;;;;;14.45;10.13;;;6.10;99.90;;;;;;5027700;28;20221;-66
2022/12/02 10:26:25;;;;;;;14.90;10.07;;;6.30;99.90;;;;;;5025549;28;20288;-66
2022/12/02 10:28:58;;;;;;;15.65;10.45;;;6.20;99.90;;;;;;5025442;28;20189;-65
2022/12/02 10:31:24;;;;;;;13.43;9.57;;;5.90;99.90;;;;;;4975348;28;1218010;-66
2022/12/02 10:33:59;;;;;;;15.47;10.80;;;6.10;99.90;;;;;;5028221;28;20216;-64
2022/12/02 10:36:34;;;;;;;12.25;9.85;;;6.20;99.90;;;;;;5016384;28;20459;-63
2022/12/02 10:39:26;;;;;;;15.25;10.65;;;6.00;99.90;;;;;;5020757;28;20743;-63
2022/12/02 10:42:03;;;;;;;17.17;10.95;;;5.90;99.90;;;;;;5029437;28;20625;-66
2022/12/02 10:44:31;;;;;;;16.40;10.57;;;6.00;99.90;;;;;;5024507;28;20280;-63
2022/12/02 10:47:23;;;;;;;18.63;9.90;;;8.50;99.90;;;;;;5026268;28;20223;-64
2022/12/02 10:49:59;;;;;;;15.35;10.43;;;5.90;99.90;;;;;;5025599;28;20310;-65
2022/12/02 10:52:44;;;;;;;13.80;9.35;;;6.00;99.90;;;;;;5032883;28;20276;-66
2022/12/02 10:55:11;;;;;;;12.90;10.10;;;6.20;99.90;;;;;;5014623;28;20561;-64
2022/12/02 10:57:38;;;;;;;15.27;10.98;;;6.00;99.90;;;;;;5028778;28;20186;-65
2022/12/02 11:00:21;;;;;;;16.90;10.88;;;6.10;99.90;;;;;;5031113;28;20332;-64
2022/12/02 11:02:56;;;;;;;14.23;10.40;;;6.00;99.90;;;;;;5031076;28;20586;-64
2022/12/02 11:05:23;;;;;;;15.80;10.70;;;6.20;99.90;;;;;;5040812;28;20299;-65
2022/12/02 11:07:56;;;;;;;12.38;9.25;;;6.20;99.90;;;;;;5024177;28;20207;-65
2022/12/02 11:10:24;;;;;;;12.30;7.88;;;6.40;99.90;;;;;;5028742;28;20186;-65
2022/12/02 11:12:50;;;;;;;14.73;10.55;;;6.10;99.90;;;;;;5027816;28;20276;-64
2022/12/02 11:15:39;;;;;;;11.93;9.30;;;6.10;99.90;;;;;;5025507;28;20202;-64
2022/12/02 11:18:11;;;;;;;12.52;7.97;;;6.30;99.90;;;;;;5020748;28;20197;-64
2022/12/02 11:20:44;;;;;;;12.73;8.07;;;6.40;99.90;;;;;;5034843;28;20549;-64
2022/12/02 11:23:26;;;;;;;9.00;8.10;;;6.20;99.90;;;;;;5030332;28;20194;-66
2022/12/02 11:26:15;;;;;;;10.15;7.50;;;6.30;99.90;;;;;;5021292;28;20237;-66
2022/12/02 11:29:11;;;;;;;14.30;8.70;;;6.20;99.90;;;;;;5039093;28;20572;-65
2022/12/02 11:31:37;;;;;;;9.15;7.20;;;6.40;99.90;;;;;;5037693;28;20635;-65
2022/12/02 11:34:08;;;;;;;9.97;7.23;;;6.30;99.90;;;;;;5039083;28;20296;-64
2022/12/02 11:36:35;;;;;;;9.95;7.38;;;6.20;99.90;;;;;;5034333;28;20731;-64
2022/12/02 11:39:02;;;;;;;10.85;7.68;;;6.20;99.90;;;;;;5027853;28;20241;-64
2022/12/02 11:41:51;;;;;;;9.18;7.22;;;6.10;99.90;;;;;;5043680;28;20182;-64
2022/12/02 11:44:28;;;;;;;11.82;8.82;;;6.20;99.90;;;;;;5041494;28;20216;-64
2022/12/02 11:46:59;;;;;;;13.15;8.55;;;6.30;99.90;;;;;;5022522;28;20655;-64
2022/12/02 11:49:39;;;;;;;9.65;7.25;;;6.10;99.90;;;;;;5026089;28;20198;-64
2022/12/02 11:52:07;;;;;;;8.85;7.45;;;6.00;99.90;;;;;;5025757;28;20201;-67
2022/12/02 11:54:38;;;;;;;9.65;7.45;;;6.00;99.90;;;;;;5045742;28;20210;-65
2022/12/02 11:57:04;;;;;;;11.52;8.40;;;5.60;99.90;;;;;;5028442;28;20203;-64
2022/12/02 11:59:33;;;;;;;9.88;6.93;;;6.10;99.90;;;;;;5031180;28;20181;-64
2022/12/02 12:02:28;;;;;;;12.98;9.00;;;6.40;99.90;;;;;;5036619;28;20190;-65
2022/12/02 12:05:03;;;;;;;7.63;6.70;;;6.20;99.90;;;;;;5011935;28;20707;-65
2022/12/02 12:07:46;;;;;;;8.45;7.30;;;6.10;99.90;;;;;;5032834;28;20188;-65
2022/12/02 12:10:29;;;;;;;10.35;9.23;;;6.40;99.90;;;;;;5030413;28;20201;-65
2022/12/02 12:13:19;;;;;;;11.27;7.80;;;6.20;99.90;;;;;;5028894;28;20185;-66
2022/12/02 12:15:57;;;;;;;8.55;7.45;;;6.20;99.90;;;;;;5028179;28;20182;-65
2022/12/02 12:18:47;;;;;;;7.80;6.25;;;6.40;99.90;;;;;;5027333;28;22238;-64
2022/12/02 12:21:40;;;;;;;8.10;7.30;;;6.20;99.90;;;;;;5028757;28;20186;-66
2022/12/02 12:24:22;;;;;;;8.93;7.38;;;6.30;99.90;;;;;;5026798;28;20213;-64
2022/12/02 12:26:56;;;;;;;10.45;7.75;;;6.30;99.90;;;;;;5033562;28;20189;-65
2022/12/02 12:29:25;;;;;;;8.65;6.78;;;6.30;99.90;;;;;;5026146;28;20195;-66
2022/12/02 12:31:51;;;;;;;9.48;6.78;;;6.20;99.90;;;;;;5026481;28;20257;-67
2022/12/02 12:34:17;;;;;;;10.00;7.30;;;6.20;99.90;;;;;;5029092;28;20293;-64
2022/12/02 12:36:44;;;;;;;8.80;7.20;;;5.80;99.90;;;;;;5028244;28;20597;-64
2022/12/02 12:39:10;;;;;;;8.43;7.15;;;6.30;99.90;;;;;;5023641;28;20693;-64
2022/12/02 12:41:36;;;;;;;9.10;6.95;;;6.20;99.90;;;;;;5030877;28;20190;-64
2022/12/02 12:44:02;;;;;;;7.35;6.45;;;6.10;99.90;;;;;;5031171;28;20705;-66
2022/12/02 12:46:28;;;;;;;7.00;6.10;;;6.00;99.90;;;;;;5025701;28;20201;-64
2022/12/02 12:48:54;;;;;;;7.70;6.37;;;6.00;99.90;;;;;;5036497;28;20898;-65
2022/12/02 12:51:19;;;;;;;7.50;6.10;;;5.80;99.90;;;;;;5033179;28;20613;-66